aviador You're here:

CYBW Decoded Metar

CALGARY/SPRINGBA in AB, CANADA
Report Time2018-07-20 18:00:00
UTC Time2018-07-20 18:38:50
Flight Rules vfr VFR
Wind110° at 06 kt
W.Decomp.*RWY 08: 5.8 kt HW 1.6 kt RCW
RWY 17: 1.6 kt HW 5.8 kt LCW
W.Rank110° ranks 22
Current wind is below 110° avg. (6.3)
Visibility9999 m
Phenomena:N/A
Clouds:N/A
Expected CloudBase > 4,000 ft AGL from Temp-Dew spread
CeilingNone
Temp23°C (ISA +16)
Dew Point13°C (53% RH)
AAT21.7°C
QNH1010 hPa
Density Alt6,070 ft
Elevation3,937 ft
Report Wrong Elevation
Raw Report
CYBW 201800Z AUTO 11006KT 090V190 9SM CLR 23/13 A2983 RMK SLP089
DENSITY ALT 5800FT=

Extra information for CYBW:More info

Metar Taf Metar & Taf Last 4 Metars F.Rules Stats Wind Profile Meteogram Temp Stats Airport Information Weather charts Add Link Nearby VenuesMetar ALERT Operation Metar Decoded Social comments